createdAt,value
2022-11-16T00:01:04.795Z,100159.02
2022-11-16T00:03:37.032Z,100156.84
2022-11-16T00:06:10.427Z,100158.54
2022-11-16T00:08:45.624Z,100158.34
2022-11-16T00:11:19.174Z,100157.02
2022-11-16T00:13:50.923Z,100157.86
2022-11-16T00:16:24.936Z,100152.27
2022-11-16T00:19:01.098Z,100152.68
2022-11-16T00:21:33.961Z,100149.64
2022-11-16T00:24:06.957Z,100142.35
2022-11-16T00:26:38.743Z,100141.42
2022-11-16T00:29:14.926Z,100139.02
2022-11-16T00:31:46.913Z,100141.14
2022-11-16T00:34:25.970Z,100141.77
2022-11-16T00:36:57.719Z,100141.20
2022-11-16T00:39:29.489Z,100146.64
2022-11-16T00:42:01.255Z,100151.54
2022-11-16T00:44:33.101Z,100151.92
2022-11-16T00:47:04.928Z,100144.41
2022-11-16T00:49:38.548Z,100137.90
2022-11-16T00:52:10.335Z,100127.95
2022-11-16T00:54:42.187Z,100129.06
2022-11-16T00:57:13.894Z,100120.77
2022-11-16T00:59:45.777Z,100121.61
2022-11-16T01:02:17.555Z,100122.63
2022-11-16T01:04:49.381Z,100125.54
2022-11-16T01:07:22.266Z,100126.40
2022-11-16T01:09:54.135Z,100131.92
2022-11-16T01:12:27.766Z,100127.31
2022-11-16T01:14:59.706Z,100127.40
2022-11-16T01:17:31.432Z,100126.90
2022-11-16T01:20:10.922Z,100125.86
2022-11-16T01:22:43.267Z,100126.68
2022-11-16T01:25:19.612Z,100125.76
2022-11-16T01:27:51.475Z,100126.52
2022-11-16T01:30:26.763Z,100121.38
2022-11-16T01:32:58.532Z,100120.52
2022-11-16T01:35:30.415Z,100123.92
2022-11-16T01:38:02.192Z,100125.95
2022-11-16T01:40:33.967Z,100127.17
2022-11-16T01:43:13.333Z,100129.52
2022-11-16T01:45:47.771Z,100129.80
2022-11-16T01:48:25.397Z,100129.61
2022-11-16T01:50:58.991Z,100127.77
2022-11-16T01:53:30.818Z,100127.93
2022-11-16T01:56:02.717Z,100130.44
2022-11-16T01:58:34.886Z,100126.67
2022-11-16T02:01:07.223Z,100126.67
2022-11-16T02:03:43.713Z,100126.28
2022-11-16T02:06:46.668Z,100123.85
2022-11-16T02:09:58.849Z,100119.73
2022-11-16T02:12:53.784Z,100115.80
2022-11-16T02:15:32.181Z,100113.05
2022-11-16T02:18:16.886Z,100113.90
2022-11-16T02:20:59.884Z,100109.79
2022-11-16T02:24:03.160Z,100107.48
2022-11-16T02:27:11.074Z,100106.07
2022-11-16T02:29:46.965Z,100105.59
2022-11-16T02:32:25.001Z,100098.23
2022-11-16T02:35:02.237Z,100097.98
2022-11-16T02:37:37.571Z,100099.26
2022-11-16T02:40:14.209Z,100102.25
2022-11-16T02:42:51.124Z,100104.33
2022-11-16T02:45:25.631Z,100099.52
2022-11-16T02:48:02.345Z,100099.19
2022-11-16T02:50:36.278Z,100093.11
2022-11-16T02:53:08.007Z,100090.83
2022-11-16T02:55:39.783Z,100087.88
2022-11-16T02:58:13.983Z,100087.40
2022-11-16T03:00:52.340Z,100084.36
2022-11-16T03:03:31.137Z,100080.13
2022-11-16T03:06:08.857Z,100073.44
2022-11-16T03:08:44.364Z,100075.64
2022-11-16T03:11:34.260Z,100081.10
2022-11-16T03:14:10.775Z,100075.11
2022-11-16T03:16:45.117Z,100073.91
2022-11-16T03:19:23.169Z,100072.23
2022-11-16T03:22:00.655Z,100075.05
2022-11-16T03:24:32.823Z,100074.91
2022-11-16T03:27:13.496Z,100073.17
2022-11-16T03:29:50.232Z,100072.25
2022-11-16T03:32:29.514Z,100068.94
2022-11-16T03:35:05.574Z,100068.52
2022-11-16T03:37:48.424Z,100065.95
2022-11-16T03:40:25.102Z,100062.68
2022-11-16T03:42:59.072Z,100059.67
2022-11-16T03:45:32.361Z,100061.66
2022-11-16T03:48:04.136Z,100056.06
2022-11-16T03:50:36.105Z,100050.04
2022-11-16T03:53:07.846Z,100046.14
2022-11-16T03:55:39.559Z,100034.52
2022-11-16T03:58:11.525Z,100029.83
2022-11-16T04:00:43.241Z,100027.07
2022-11-16T04:03:14.985Z,100027.40
2022-11-16T04:06:04.115Z,100023.92
2022-11-16T04:08:53.451Z,100023.52
2022-11-16T04:11:48.738Z,100020.58
2022-11-16T04:14:41.764Z,100017.05
2022-11-16T04:17:33.195Z,100015.06
2022-11-16T04:20:22.458Z,100017.16
2022-11-16T04:23:15.349Z,100019.65
2022-11-16T04:25:47.980Z,100011.70
2022-11-16T04:28:23.930Z,100000.80
2022-11-16T04:31:15.608Z,99997.54
2022-11-16T04:34:05.318Z,99996.92
2022-11-16T04:36:54.782Z,100002.73
2022-11-16T04:39:26.515Z,100007.35
2022-11-16T04:42:16.357Z,100008.02
2022-11-16T04:45:05.780Z,100005.77
2022-11-16T04:47:37.493Z,100004.25
2022-11-16T04:50:11.910Z,100006.13
2022-11-16T04:52:43.598Z,99997.19
2022-11-16T04:55:15.750Z,99998.84
2022-11-16T04:57:47.391Z,99996.68
2022-11-16T05:00:26.815Z,99991.91
2022-11-16T05:03:01.594Z,99989.36
2022-11-16T05:05:33.629Z,99984.29
2022-11-16T05:08:05.423Z,99983.34
2022-11-16T05:10:37.346Z,99977.11
2022-11-16T05:13:08.979Z,99975.59
2022-11-16T05:15:40.726Z,99979.05
2022-11-16T05:18:12.393Z,99975.17
2022-11-16T05:21:01.815Z,99969.30
2022-11-16T05:24:05.884Z,99971.77
2022-11-16T05:26:38.811Z,99967.76
2022-11-16T05:29:10.561Z,99972.38
2022-11-16T05:31:42.219Z,99968.15
2022-11-16T05:34:14.233Z,99977.31
2022-11-16T05:36:45.888Z,99970.70
2022-11-16T05:39:17.783Z,99973.30
2022-11-16T05:41:49.747Z,99982.75
2022-11-16T05:44:21.672Z,99979.33
2022-11-16T05:46:53.584Z,99981.73
2022-11-16T05:49:25.572Z,99984.63
2022-11-16T05:51:57.307Z,99989.02
2022-11-16T05:54:29.001Z,99994.21
2022-11-16T05:57:00.728Z,99997.06
2022-11-16T05:59:32.432Z,99997.69
2022-11-16T06:02:04.934Z,100003.49
2022-11-16T06:04:36.685Z,100001.11
2022-11-16T06:07:08.404Z,100000.85
2022-11-16T06:09:46.203Z,99999.98
2022-11-16T06:12:17.915Z,100003.14
2022-11-16T06:14:49.645Z,100002.09
2022-11-16T06:17:21.291Z,100004.19
2022-11-16T06:19:53.051Z,100006.31
2022-11-16T06:22:24.860Z,100010.75
2022-11-16T06:24:56.577Z,100013.09
2022-11-16T06:27:28.431Z,100007.02
2022-11-16T06:30:00.934Z,100004.41
2022-11-16T06:32:32.597Z,100009.55
2022-11-16T06:35:05.274Z,100008.85
2022-11-16T06:37:38.321Z,100001.91
2022-11-16T06:40:15.695Z,100003.98
2022-11-16T06:42:47.339Z,100007.63
2022-11-16T06:45:19.241Z,100001.53
2022-11-16T06:47:50.936Z,100005.34
2022-11-16T06:50:25.870Z,100007.11
2022-11-16T06:53:00.828Z,100004.30
2022-11-16T06:55:37.387Z,100007.63
2022-11-16T06:58:09.510Z,100005.27
2022-11-16T07:00:42.841Z,100003.45
2022-11-16T07:03:14.672Z,100002.36
2022-11-16T07:05:46.472Z,99998.98
2022-11-16T07:08:18.794Z,99997.23
2022-11-16T07:10:50.579Z,99998.65
2022-11-16T07:13:22.230Z,99994.72
2022-11-16T07:15:53.948Z,99991.92
2022-11-16T07:18:25.548Z,99988.98
2022-11-16T07:20:57.248Z,99991.98
2022-11-16T07:23:31.092Z,99991.22
2022-11-16T07:26:04.344Z,99985.94
2022-11-16T07:28:36.732Z,99984.30
2022-11-16T07:31:11.210Z,99985.04
2022-11-16T07:33:43.238Z,99987.73
2022-11-16T07:36:16.760Z,99990.87
2022-11-16T07:38:48.400Z,99993.08
2022-11-16T07:41:21.220Z,99994.86
2022-11-16T07:43:53.475Z,99989.64
2022-11-16T07:46:45.868Z,99984.98
2022-11-16T07:49:19.249Z,99993.36
2022-11-16T07:51:50.980Z,99995.52
2022-11-16T07:54:23.030Z,99994.46
2022-11-16T07:56:54.708Z,99993.59
2022-11-16T07:59:27.496Z,99996.02
2022-11-16T08:02:00.141Z,99994.72
2022-11-16T08:04:32.090Z,99994.66
2022-11-16T08:07:03.935Z,99995.66
2022-11-16T08:09:38.125Z,99997.70
2022-11-16T08:12:10.002Z,99995.45
2022-11-16T08:14:41.678Z,99995.44
2022-11-16T08:17:14.543Z,99996.57
2022-11-16T08:20:38.954Z,99993.14
2022-11-16T08:23:12.910Z,99995.17
2022-11-16T08:25:44.643Z,99997.07
2022-11-16T08:28:16.557Z,99998.71
2022-11-16T08:30:53.655Z,99995.97
2022-11-16T08:33:26.519Z,99999.66
2022-11-16T08:35:59.608Z,99999.10
2022-11-16T08:38:31.955Z,99998.11
2022-11-16T08:41:04.067Z,100000.81
2022-11-16T08:43:36.140Z,99998.94
2022-11-16T08:46:08.548Z,100002.38
2022-11-16T08:48:41.030Z,100000.21
2022-11-16T08:51:18.590Z,100004.23
2022-11-16T08:53:51.374Z,100010.25
2022-11-16T08:56:23.151Z,100010.59
2022-11-16T08:58:58.981Z,100011.50
2022-11-16T09:01:33.265Z,100015.31
2022-11-16T09:04:05.011Z,100014.11
2022-11-16T09:06:38.826Z,100016.02
2022-11-16T09:09:11.547Z,100014.36
2022-11-16T09:11:43.413Z,100016.53
2022-11-16T09:14:16.690Z,100013.59
2022-11-16T09:16:48.531Z,100010.77
2022-11-16T09:19:21.154Z,100009.15
2022-11-16T09:21:52.965Z,100008.70
2022-11-16T09:24:25.400Z,100011.02
2022-11-16T09:27:11.934Z,100010.05
2022-11-16T09:29:44.322Z,100010.40
2022-11-16T09:35:45.187Z,100006.44
2022-11-16T09:38:24.170Z,100002.45
2022-11-16T09:41:21.590Z,99999.26
2022-11-16T09:44:04.494Z,99994.40
2022-11-16T09:46:40.181Z,100002.13
2022-11-16T09:49:17.985Z,99997.64
2022-11-16T09:51:55.116Z,99997.36
2022-11-16T09:54:30.903Z,100000.51
2022-11-16T09:57:12.004Z,99997.20
2022-11-16T09:59:48.769Z,99996.28
2022-11-16T10:02:25.025Z,99990.21
2022-11-16T10:05:04.786Z,99987.73
2022-11-16T10:07:43.228Z,99983.38
2022-11-16T10:10:34.198Z,99981.64
2022-11-16T10:13:22.284Z,99980.11
2022-11-16T10:16:03.852Z,99973.56
2022-11-16T10:18:48.697Z,99974.77
2022-11-16T10:21:46.357Z,99969.09
2022-11-16T10:24:34.336Z,99973.95
2022-11-16T10:27:22.373Z,99969.29
2022-11-16T10:30:03.596Z,99969.59
2022-11-16T10:32:52.142Z,99972.30
2022-11-16T10:35:31.312Z,99969.91
2022-11-16T10:38:04.583Z,99970.65
2022-11-16T10:40:40.143Z,99968.52
2022-11-16T10:43:17.802Z,99967.61
2022-11-16T10:45:58.076Z,99968.81
2022-11-16T10:48:39.692Z,99970.64
2022-11-16T10:51:12.755Z,99966.55
2022-11-16T10:53:46.522Z,99965.73
2022-11-16T10:56:22.453Z,99964.58
2022-11-16T10:58:59.751Z,99968.03
2022-11-16T11:01:36.572Z,99962.10
2022-11-16T11:04:21.161Z,99965.40
2022-11-16T11:06:55.305Z,99961.41
2022-11-16T11:09:30.611Z,99961.56
2022-11-16T11:12:33.148Z,99958.77
2022-11-16T11:15:27.217Z,99961.08
2022-11-16T11:18:20.215Z,99956.70
2022-11-16T11:21:05.951Z,99953.45
2022-11-16T11:23:45.561Z,99951.20
2022-11-16T11:26:42.216Z,99944.83
2022-11-16T11:29:26.751Z,99945.70
2022-11-16T11:32:05.777Z,99942.67
2022-11-16T11:34:43.525Z,99944.70
2022-11-16T11:37:20.394Z,99943.65
2022-11-16T11:40:11.528Z,99937.44
2022-11-16T11:42:52.625Z,99934.63
2022-11-16T11:45:31.220Z,99934.30
2022-11-16T11:48:04.460Z,99936.69
2022-11-16T11:50:50.785Z,99933.27
2022-11-16T11:53:38.671Z,99931.18
2022-11-16T11:56:13.466Z,99932.81
2022-11-16T11:58:48.010Z,99926.31
2022-11-16T12:01:35.111Z,99930.35
2022-11-16T12:04:51.490Z,99925.52
2022-11-16T12:07:34.866Z,99921.45
2022-11-16T12:10:17.019Z,99915.98
2022-11-16T12:13:04.474Z,99919.23
2022-11-16T12:15:51.347Z,99917.93
2022-11-16T12:18:37.352Z,99917.68
2022-11-16T12:21:23.733Z,99914.61
2022-11-16T12:24:17.609Z,99911.75
2022-11-16T12:27:03.268Z,99911.21
2022-11-16T12:29:45.597Z,99908.84
2022-11-16T12:32:44.918Z,99907.95
2022-11-16T12:35:38.307Z,99910.30
2022-11-16T12:38:27.786Z,99910.39
2022-11-16T12:41:27.065Z,99912.18
2022-11-16T12:44:02.936Z,99907.13
2022-11-16T12:46:48.343Z,99906.95
2022-11-16T12:49:40.610Z,99909.10
2022-11-16T12:52:53.767Z,99905.93
2022-11-16T12:55:33.849Z,99904.84
2022-11-16T12:58:20.536Z,99905.24
2022-11-16T13:01:06.410Z,99902.67
2022-11-16T13:03:43.803Z,99899.55
2022-11-16T13:06:22.684Z,99900.34
2022-11-16T13:09:04.571Z,99898.03
2022-11-16T13:11:41.372Z,99901.25
2022-11-16T13:14:18.583Z,99900.96
2022-11-16T13:16:51.221Z,99904.07
2022-11-16T13:19:23.766Z,99901.78
2022-11-16T13:22:03.232Z,99900.79
2022-11-16T13:24:46.093Z,99903.03
2022-11-16T13:27:29.823Z,99898.73
2022-11-16T13:30:11.194Z,99898.58
2022-11-16T13:32:57.102Z,99904.50
2022-11-16T13:35:29.472Z,99905.33
2022-11-16T13:38:02.973Z,99902.90
2022-11-16T13:40:35.985Z,99901.20
2022-11-16T13:43:17.786Z,99900.46
2022-11-16T13:46:01.469Z,99897.77
2022-11-16T13:48:36.430Z,99893.65
2022-11-16T13:51:29.142Z,99891.30
2022-11-16T13:54:44.778Z,99894.09
2022-11-16T13:56:56.717Z,99898.75
2022-11-16T13:59:31.957Z,99895.80
2022-11-16T14:02:05.881Z,99895.46
2022-11-16T14:04:43.469Z,99897.09
2022-11-16T14:07:37.284Z,99901.67
2022-11-16T14:10:13.782Z,99902.71
2022-11-16T14:12:55.284Z,99906.52
2022-11-16T14:15:34.835Z,99905.85
2022-11-16T14:18:35.244Z,99907.13
2022-11-16T14:21:16.337Z,99903.38
2022-11-16T14:24:07.666Z,99898.99
2022-11-16T14:26:53.343Z,99903.20
2022-11-16T14:29:37.509Z,99902.02
2022-11-16T14:32:22.615Z,99901.94
2022-11-16T14:34:56.873Z,99899.71
2022-11-16T14:37:35.657Z,99895.58
2022-11-16T14:40:18.056Z,99889.35
2022-11-16T14:43:16.079Z,99894.31
2022-11-16T14:45:56.690Z,99890.36
2022-11-16T14:48:29.250Z,99890.30
2022-11-16T14:51:09.575Z,99887.72
2022-11-16T14:53:50.289Z,99888.42
2022-11-16T14:56:22.967Z,99883.70
2022-11-16T14:58:59.007Z,99887.71
2022-11-16T15:01:34.382Z,99892.77
2022-11-16T15:04:08.497Z,99893.19
2022-11-16T15:06:44.853Z,99893.22
2022-11-16T15:09:22.472Z,99889.23
2022-11-16T15:12:13.067Z,99891.30
2022-11-16T15:14:51.483Z,99890.71
2022-11-16T15:17:30.117Z,99892.88
2022-11-16T15:20:15.845Z,99888.13
2022-11-16T15:22:49.328Z,99889.48
2022-11-16T15:25:31.168Z,99889.20
2022-11-16T15:28:05.343Z,99887.90
2022-11-16T15:30:40.231Z,99883.31
2022-11-16T15:33:17.983Z,99879.71
2022-11-16T15:35:54.069Z,99881.23
2022-11-16T15:38:27.345Z,99883.77
2022-11-16T15:41:01.411Z,99881.23
2022-11-16T15:43:45.169Z,99880.60
2022-11-16T15:46:29.026Z,99882.49
2022-11-16T15:49:01.566Z,99884.17
2022-11-16T15:51:34.286Z,99884.55
2022-11-16T15:54:27.587Z,99887.69
2022-11-16T15:57:08.082Z,99882.85
2022-11-16T15:59:48.679Z,99885.09
2022-11-16T16:02:23.304Z,99882.97
2022-11-16T16:04:55.020Z,99883.23
2022-11-16T16:07:43.831Z,99882.66
2022-11-16T16:10:25.900Z,99886.73
2022-11-16T16:12:59.438Z,99882.29
2022-11-16T16:15:36.266Z,99886.73
2022-11-16T16:18:38.100Z,99888.27
2022-11-16T16:21:11.464Z,99881.28
2022-11-16T16:23:49.004Z,99882.78
2022-11-16T16:26:21.061Z,99882.84
2022-11-16T16:28:53.060Z,99886.90
2022-11-16T16:31:24.940Z,99891.33
2022-11-16T16:33:56.770Z,99885.81
2022-11-16T16:36:28.410Z,99889.88
2022-11-16T16:38:59.990Z,99887.25
2022-11-16T16:41:31.784Z,99889.23
2022-11-16T16:44:05.791Z,99893.70
2022-11-16T16:46:37.395Z,99894.63
2022-11-16T16:49:09.064Z,99899.56
2022-11-16T16:51:40.742Z,99903.14
2022-11-16T16:54:15.602Z,99899.02
2022-11-16T16:56:47.364Z,99900.30
2022-11-16T16:59:19.065Z,99901.35
2022-11-16T17:01:50.927Z,99893.72
2022-11-16T17:04:22.761Z,99902.19
2022-11-16T17:06:54.859Z,99904.00
2022-11-16T17:09:26.592Z,99898.30
2022-11-16T17:12:11.621Z,99904.48
2022-11-16T17:14:51.535Z,99903.77
2022-11-16T17:17:25.436Z,99900.80
2022-11-16T17:19:57.198Z,99898.14
2022-11-16T17:22:29.034Z,99902.19
2022-11-16T17:25:01.152Z,99900.01
2022-11-16T17:27:33.025Z,99898.62
2022-11-16T17:30:05.131Z,99900.00
2022-11-16T17:32:44.532Z,99898.67
2022-11-16T17:35:16.459Z,99901.05
2022-11-16T17:37:48.216Z,99903.80
2022-11-16T17:40:23.706Z,99902.84
2022-11-16T17:42:56.515Z,99902.40
2022-11-16T17:45:28.331Z,99902.58
2022-11-16T17:48:02.984Z,99905.00
2022-11-16T17:50:34.772Z,99907.48
2022-11-16T17:53:08.828Z,99907.91
2022-11-16T17:55:45.007Z,99905.53
2022-11-16T17:58:19.607Z,99905.98
2022-11-16T18:00:54.318Z,99903.83
2022-11-16T18:03:28.540Z,99904.71
2022-11-16T18:06:09.391Z,99912.46
2022-11-16T18:08:45.671Z,99914.29
2022-11-16T18:11:21.960Z,99917.36
2022-11-16T18:13:58.442Z,99917.80
2022-11-16T18:16:36.158Z,99920.66
2022-11-16T18:19:10.596Z,99922.35
2022-11-16T18:21:42.948Z,99922.36
2022-11-16T18:24:15.979Z,99921.60
2022-11-16T18:26:47.685Z,99919.83
2022-11-16T18:29:19.437Z,99916.05
2022-11-16T18:31:51.154Z,99918.39
2022-11-16T18:34:22.908Z,99913.92
2022-11-16T18:36:54.611Z,99911.63
2022-11-16T18:39:26.336Z,99915.58
2022-11-16T18:41:59.403Z,99917.74
2022-11-16T18:44:31.082Z,99913.55
2022-11-16T18:47:03.188Z,99908.48
2022-11-16T18:49:34.899Z,99907.95
2022-11-16T18:52:08.586Z,99912.77
2022-11-16T18:54:40.306Z,99911.77
2022-11-16T18:57:14.973Z,99911.21
2022-11-16T18:59:47.968Z,99913.95
2022-11-16T19:02:19.615Z,99916.60
2022-11-16T19:04:51.333Z,99920.02
2022-11-16T19:07:23.188Z,99921.60
2022-11-16T19:09:54.922Z,99914.67
2022-11-16T19:12:26.702Z,99918.73
2022-11-16T19:14:58.482Z,99919.45
2022-11-16T19:17:33.033Z,99922.12
2022-11-16T19:20:04.905Z,99919.77
2022-11-16T19:22:36.744Z,99921.70
2022-11-16T19:25:10.492Z,99916.52
2022-11-16T19:27:42.176Z,99916.38
2022-11-16T19:30:25.696Z,99913.27
2022-11-16T19:33:00.724Z,99917.61
2022-11-16T19:35:32.601Z,99922.98
2022-11-16T19:38:04.313Z,99923.75
2022-11-16T19:40:39.456Z,99926.54
2022-11-16T19:43:11.080Z,99923.12
2022-11-16T19:45:42.729Z,99934.13
2022-11-16T19:48:14.644Z,99927.45
2022-11-16T19:50:46.338Z,99930.30
2022-11-16T19:53:18.101Z,99924.63
2022-11-16T19:55:56.681Z,99922.23
2022-11-16T19:58:28.668Z,99922.81
2022-11-16T20:01:04.863Z,99926.98
2022-11-16T20:03:38.314Z,99930.40
2022-11-16T20:06:14.330Z,99931.36
2022-11-16T20:08:50.150Z,99942.17
2022-11-16T20:11:24.608Z,99939.03
2022-11-16T20:13:58.480Z,99940.64
2022-11-16T20:16:38.404Z,99939.58
2022-11-16T20:19:12.608Z,99935.73
2022-11-16T20:21:45.676Z,99931.79
2022-11-16T20:24:19.014Z,99929.05
2022-11-16T20:26:51.460Z,99928.78
2022-11-16T20:29:24.512Z,99929.62
2022-11-16T20:31:56.249Z,99931.84
2022-11-16T20:34:30.005Z,99931.27
2022-11-16T20:37:01.722Z,99934.55
2022-11-16T20:39:33.521Z,99943.54
2022-11-16T20:42:06.471Z,99949.95
2022-11-16T20:44:38.171Z,99955.48
2022-11-16T20:47:09.877Z,99953.02
2022-11-16T20:49:41.536Z,99952.33
2022-11-16T20:52:13.216Z,99953.80
2022-11-16T20:54:44.949Z,99948.60
2022-11-16T20:57:16.686Z,99954.38
2022-11-16T20:59:48.733Z,99950.30
2022-11-16T21:02:20.524Z,99947.08
2022-11-16T21:04:56.142Z,99946.33
2022-11-16T21:07:32.319Z,99942.23
2022-11-16T21:10:22.274Z,99946.19
2022-11-16T21:13:11.789Z,99947.83
2022-11-16T21:15:44.384Z,99943.44
2022-11-16T21:18:17.784Z,99953.55
2022-11-16T21:20:49.417Z,99949.90
2022-11-16T21:23:23.811Z,99951.80
2022-11-16T21:25:55.781Z,99950.53
2022-11-16T21:28:27.470Z,99950.02
2022-11-16T21:31:03.505Z,99949.32
2022-11-16T21:33:36.929Z,99947.42
2022-11-16T21:36:11.416Z,99953.02
2022-11-16T21:38:43.535Z,99954.31
2022-11-16T21:41:16.712Z,99952.41
2022-11-16T21:43:48.857Z,99954.69
2022-11-16T21:46:23.253Z,99956.05
2022-11-16T21:48:56.915Z,99954.95
2022-11-16T21:51:29.210Z,99958.76
2022-11-16T21:54:01.123Z,99951.59
2022-11-16T21:56:32.797Z,99940.96
2022-11-16T21:59:04.509Z,99942.09
2022-11-16T22:01:52.578Z,99939.92
2022-11-16T22:04:41.612Z,99946.08
2022-11-16T22:07:36.652Z,99945.65
2022-11-16T22:10:11.547Z,99949.80
2022-11-16T22:12:43.315Z,99951.66
2022-11-16T22:15:15.327Z,99950.45
2022-11-16T22:17:47.208Z,99952.61
2022-11-16T22:20:21.489Z,99961.84
2022-11-16T22:22:53.386Z,99963.42
2022-11-16T22:25:25.644Z,99961.80
2022-11-16T22:30:52.039Z,99964.72
2022-11-16T22:33:24.379Z,99965.62
2022-11-16T22:35:56.151Z,99961.95
2022-11-16T22:38:28.450Z,99965.06
2022-11-16T22:41:00.510Z,99961.00
2022-11-16T22:43:33.267Z,99962.94
2022-11-16T22:46:06.845Z,99968.34
2022-11-16T22:48:40.418Z,99960.02
2022-11-16T22:51:19.127Z,99955.67
2022-11-16T22:53:55.175Z,99953.54
2022-11-16T22:56:27.606Z,99955.73
2022-11-16T22:59:00.772Z,99958.91
2022-11-16T23:01:32.610Z,99958.28
2022-11-16T23:04:04.819Z,99952.92
2022-11-16T23:06:37.727Z,99955.89
2022-11-16T23:09:09.558Z,99954.74
2022-11-16T23:11:58.582Z,99946.17
2022-11-16T23:14:48.307Z,99938.96
2022-11-16T23:17:20.259Z,99935.39
2022-11-16T23:20:14.757Z,99930.16
2022-11-16T23:23:19.236Z,99932.41
2022-11-16T23:26:22.988Z,99929.28
2022-11-16T23:28:55.394Z,99930.06
2022-11-16T23:31:27.270Z,99932.57
2022-11-16T23:33:59.172Z,99927.35
2022-11-16T23:36:30.867Z,99922.28
2022-11-16T23:39:03.143Z,99922.84
2022-11-16T23:41:52.497Z,99921.04
2022-11-16T23:44:24.441Z,99918.05
2022-11-16T23:46:56.218Z,99915.13
2022-11-16T23:49:28.078Z,99923.09
2022-11-16T23:51:59.823Z,99915.92
2022-11-16T23:54:31.618Z,99921.42
2022-11-16T23:57:03.445Z,99923.06
2022-11-16T23:59:35.507Z,99917.85
